Brooklyn, Wisconsin
Current Conditions -  °F | °C
As of 7:15 AM on Friday 28 Nov 2014 (Local Time) from KEFT Reporting Station
Overcast Overcast  
Wind Chill:   Ceiling: 12000
Heat Index: 18°   Visibility: 10mi
Dew Point: 12°   Wind: 9mph
Humidity: 79%   Direction: 150°SSE
Pressure: 30.17"   Gusts: NA
Location:  42.85°N, 89.37°W
Report Text: KEFT 281315Z AUTO 15008KT 10SM OVC120 M08/M11 A3017 RMK AO2
Loading
Personal Weather Stations






























Interactive Weather Map New forecast layout! Learn more

10-Day Weather Forecast

Advertisements
Track Severe Weather on mobile